sensor_id;sensor_type;location;lat;lon;timestamp;temperature;humidity
75786;DHT22;64402;44.708;37.644;2023-02-21T00:02:41;5.08;59.96
75786;DHT22;64402;44.708;37.644;2023-02-21T00:05:25;5.11;60.16
75786;DHT22;64402;44.708;37.644;2023-02-21T00:08:10;5.15;61.25
75786;DHT22;64402;44.708;37.644;2023-02-21T00:10:54;5.20;61.10
75786;DHT22;64402;44.708;37.644;2023-02-21T00:13:39;5.21;61.08
75786;DHT22;64402;44.708;37.644;2023-02-21T00:16:24;5.25;61.39
75786;DHT22;64402;44.708;37.644;2023-02-21T00:19:08;5.32;61.06
75786;DHT22;64402;44.708;37.644;2023-02-21T00:21:56;5.36;61.49
75786;DHT22;64402;44.708;37.644;2023-02-21T00:24:40;5.38;60.99
75786;DHT22;64402;44.708;37.644;2023-02-21T00:27:25;5.37;61.14
75786;DHT22;64402;44.708;37.644;2023-02-21T00:30:11;5.42;59.94
75786;DHT22;64402;44.708;37.644;2023-02-21T00:32:57;5.45;60.04
75786;DHT22;64402;44.708;37.644;2023-02-21T00:35:42;5.48;59.99
75786;DHT22;64402;44.708;37.644;2023-02-21T00:38:27;5.50;58.96
75786;DHT22;64402;44.708;37.644;2023-02-21T00:41:11;5.52;59.57
75786;DHT22;64402;44.708;37.644;2023-02-21T00:43:56;5.51;59.49
75786;DHT22;64402;44.708;37.644;2023-02-21T00:46:41;5.52;60.14
75786;DHT22;64402;44.708;37.644;2023-02-21T00:49:25;5.54;60.77
75786;DHT22;64402;44.708;37.644;2023-02-21T00:52:10;5.57;60.71
75786;DHT22;64402;44.708;37.644;2023-02-21T00:54:55;5.60;61.31
75786;DHT22;64402;44.708;37.644;2023-02-21T00:57:40;5.64;63.20
75786;DHT22;64402;44.708;37.644;2023-02-21T01:00:25;5.68;62.90
75786;DHT22;64402;44.708;37.644;2023-02-21T01:03:10;5.71;63.02
75786;DHT22;64402;44.708;37.644;2023-02-21T01:05:58;5.75;63.39
75786;DHT22;64402;44.708;37.644;2023-02-21T01:08:43;5.77;63.82
75786;DHT22;64402;44.708;37.644;2023-02-21T01:11:29;5.82;64.65
75786;DHT22;64402;44.708;37.644;2023-02-21T01:14:14;5.84;64.58
75786;DHT22;64402;44.708;37.644;2023-02-21T01:17:01;5.87;64.49
75786;DHT22;64402;44.708;37.644;2023-02-21T01:19:46;5.91;62.41
75786;DHT22;64402;44.708;37.644;2023-02-21T01:22:31;5.93;63.55
75786;DHT22;64402;44.708;37.644;2023-02-21T01:25:16;5.93;63.26
75786;DHT22;64402;44.708;37.644;2023-02-21T01:28:00;5.93;62.42
75786;DHT22;64402;44.708;37.644;2023-02-21T01:30:45;5.96;62.37
75786;DHT22;64402;44.708;37.644;2023-02-21T01:33:38;5.98;63.10
75786;DHT22;64402;44.708;37.644;2023-02-21T01:36:23;6.00;63.32
75786;DHT22;64402;44.708;37.644;2023-02-21T01:39:14;6.04;64.70
75786;DHT22;64402;44.708;37.644;2023-02-21T01:42:00;6.06;64.54
75786;DHT22;64402;44.708;37.644;2023-02-21T01:44:46;6.06;64.05
75786;DHT22;64402;44.708;37.644;2023-02-21T01:47:31;6.09;64.37
75786;DHT22;64402;44.708;37.644;2023-02-21T01:50:27;6.09;65.46
75786;DHT22;64402;44.708;37.644;2023-02-21T01:53:18;6.10;65.66
75786;DHT22;64402;44.708;37.644;2023-02-21T01:56:03;6.12;66.18
75786;DHT22;64402;44.708;37.644;2023-02-21T01:58:53;6.19;67.74
75786;DHT22;64402;44.708;37.644;2023-02-21T02:01:50;6.25;68.42
75786;DHT22;64402;44.708;37.644;2023-02-21T02:04:36;6.29;68.81
75786;DHT22;64402;44.708;37.644;2023-02-21T02:07:21;6.27;71.37
75786;DHT22;64402;44.708;37.644;2023-02-21T02:10:08;6.15;73.03
75786;DHT22;64402;44.708;37.644;2023-02-21T02:13:14;5.85;82.18
75786;DHT22;64402;44.708;37.644;2023-02-21T02:21:32;5.25;79.44
75786;DHT22;64402;44.708;37.644;2023-02-21T02:35:36;5.60;78.73
75786;DHT22;64402;44.708;37.644;2023-02-21T02:40:56;5.77;79.02
75786;DHT22;64402;44.708;37.644;2023-02-21T02:43:34;5.89;79.68
75786;DHT22;64402;44.708;37.644;2023-02-21T02:46:26;5.97;78.11
75786;DHT22;64402;44.708;37.644;2023-02-21T02:48:57;6.16;75.76
75786;DHT22;64402;44.708;37.644;2023-02-21T02:51:25;6.33;76.00
75786;DHT22;64402;44.708;37.644;2023-02-21T02:53:53;6.42;74.42
75786;DHT22;64402;44.708;37.644;2023-02-21T02:56:20;6.17;82.21
75786;DHT22;64402;44.708;37.644;2023-02-21T02:58:53;5.96;83.82
75786;DHT22;64402;44.708;37.644;2023-02-21T03:10:22;5.71;85.51
75786;DHT22;64402;44.708;37.644;2023-02-21T03:15:27;5.86;80.48
75786;DHT22;64402;44.708;37.644;2023-02-21T03:18:07;5.98;80.25
75786;DHT22;64402;44.708;37.644;2023-02-21T03:20:35;6.05;77.09
75786;DHT22;64402;44.708;37.644;2023-02-21T03:23:04;6.17;77.18
75786;DHT22;64402;44.708;37.644;2023-02-21T03:25:33;6.28;76.21
75786;DHT22;64402;44.708;37.644;2023-02-21T03:28:00;6.34;74.89
75786;DHT22;64402;44.708;37.644;2023-02-21T03:30:28;6.40;74.02
75786;DHT22;64402;44.708;37.644;2023-02-21T03:32:55;6.45;74.79
75786;DHT22;64402;44.708;37.644;2023-02-21T03:35:28;6.45;75.20
75786;DHT22;64402;44.708;37.644;2023-02-21T03:37:56;6.52;76.10
75786;DHT22;64402;44.708;37.644;2023-02-21T03:40:28;6.55;74.77
75786;DHT22;64402;44.708;37.644;2023-02-21T03:42:56;6.54;74.80
75786;DHT22;64402;44.708;37.644;2023-02-21T03:45:23;6.54;73.86
75786;DHT22;64402;44.708;37.644;2023-02-21T03:47:49;6.54;74.24
75786;DHT22;64402;44.708;37.644;2023-02-21T03:50:16;6.55;74.60
75786;DHT22;64402;44.708;37.644;2023-02-21T03:52:42;6.60;72.46
75786;DHT22;64402;44.708;37.644;2023-02-21T03:55:09;6.61;69.73
75786;DHT22;64402;44.708;37.644;2023-02-21T03:57:36;6.65;70.78
75786;DHT22;64402;44.708;37.644;2023-02-21T04:00:02;6.69;72.97
75786;DHT22;64402;44.708;37.644;2023-02-21T04:02:29;6.70;71.43
75786;DHT22;64402;44.708;37.644;2023-02-21T04:04:55;6.69;71.28
75786;DHT22;64402;44.708;37.644;2023-02-21T04:07:22;6.70;72.01
75786;DHT22;64402;44.708;37.644;2023-02-21T04:09:48;6.69;71.69
75786;DHT22;64402;44.708;37.644;2023-02-21T04:12:15;6.69;71.67
75786;DHT22;64402;44.708;37.644;2023-02-21T04:14:41;6.70;72.02
75786;DHT22;64402;44.708;37.644;2023-02-21T04:17:08;6.72;71.48
75786;DHT22;64402;44.708;37.644;2023-02-21T04:19:34;6.70;71.40
75786;DHT22;64402;44.708;37.644;2023-02-21T04:22:01;6.70;71.84
75786;DHT22;64402;44.708;37.644;2023-02-21T04:24:27;6.72;71.84
75786;DHT22;64402;44.708;37.644;2023-02-21T04:26:53;6.71;71.36
75786;DHT22;64402;44.708;37.644;2023-02-21T04:29:20;6.70;71.91
75786;DHT22;64402;44.708;37.644;2023-02-21T04:31:46;6.72;71.52
75786;DHT22;64402;44.708;37.644;2023-02-21T04:34:13;6.75;70.16
75786;DHT22;64402;44.708;37.644;2023-02-21T04:36:39;6.73;70.73
75786;DHT22;64402;44.708;37.644;2023-02-21T04:39:07;6.75;69.73
75786;DHT22;64402;44.708;37.644;2023-02-21T04:41:33;6.79;70.10
75786;DHT22;64402;44.708;37.644;2023-02-21T04:44:02;6.78;69.95
75786;DHT22;64402;44.708;37.644;2023-02-21T04:46:29;6.76;71.00
75786;DHT22;64402;44.708;37.644;2023-02-21T04:48:55;6.59;73.83
75786;DHT22;64402;44.708;37.644;2023-02-21T04:51:23;6.60;73.19
75786;DHT22;64402;44.708;37.644;2023-02-21T04:53:51;6.64;71.21
75786;DHT22;64402;44.708;37.644;2023-02-21T04:56:20;6.67;69.96
75786;DHT22;64402;44.708;37.644;2023-02-21T04:58:47;6.61;72.08
75786;DHT22;64402;44.708;37.644;2023-02-21T05:01:16;6.39;68.41
75786;DHT22;64402;44.708;37.644;2023-02-21T05:03:43;5.85;76.02
75786;DHT22;64402;44.708;37.644;2023-02-21T05:06:09;5.70;80.69
75786;DHT22;64402;44.708;37.644;2023-02-21T05:08:41;5.76;72.09
75786;DHT22;64402;44.708;37.644;2023-02-21T05:11:08;6.00;73.13
75786;DHT22;64402;44.708;37.644;2023-02-21T05:13:34;6.13;68.86
75786;DHT22;64402;44.708;37.644;2023-02-21T05:16:00;6.31;66.81
75786;DHT22;64402;44.708;37.644;2023-02-21T05:18:27;6.40;69.22
75786;DHT22;64402;44.708;37.644;2023-02-21T05:20:54;6.31;69.01
75786;DHT22;64402;44.708;37.644;2023-02-21T05:23:20;6.16;72.56
75786;DHT22;64402;44.708;37.644;2023-02-21T05:26:05;5.83;77.07
75786;DHT22;64402;44.708;37.644;2023-02-21T05:28:31;5.65;75.67
75786;DHT22;64402;44.708;37.644;2023-02-21T05:30:58;5.46;78.85
75786;DHT22;64402;44.708;37.644;2023-02-21T05:34:39;5.06;84.55
75786;DHT22;64402;44.708;37.644;2023-02-21T05:37:10;5.10;79.08
75786;DHT22;64402;44.708;37.644;2023-02-21T05:39:37;5.28;76.57
75786;DHT22;64402;44.708;37.644;2023-02-21T05:42:03;5.53;75.92
75786;DHT22;64402;44.708;37.644;2023-02-21T05:44:30;5.81;70.95
75786;DHT22;64402;44.708;37.644;2023-02-21T05:46:56;6.05;66.18
75786;DHT22;64402;44.708;37.644;2023-02-21T05:49:23;6.13;66.88
75786;DHT22;64402;44.708;37.644;2023-02-21T05:51:49;6.26;63.98
75786;DHT22;64402;44.708;37.644;2023-02-21T05:54:18;6.42;63.79
75786;DHT22;64402;44.708;37.644;2023-02-21T05:56:48;6.52;60.23
75786;DHT22;64402;44.708;37.644;2023-02-21T05:59:17;6.58;60.82
75786;DHT22;64402;44.708;37.644;2023-02-21T06:01:45;6.64;61.86
75786;DHT22;64402;44.708;37.644;2023-02-21T06:04:12;6.63;63.73
75786;DHT22;64402;44.708;37.644;2023-02-21T06:06:39;6.53;65.21
75786;DHT22;64402;44.708;37.644;2023-02-21T06:09:06;6.36;65.69
75786;DHT22;64402;44.708;37.644;2023-02-21T06:11:34;6.09;71.36
75786;DHT22;64402;44.708;37.644;2023-02-21T06:14:05;6.01;70.93
75786;DHT22;64402;44.708;37.644;2023-02-21T06:16:36;5.62;75.44
75786;DHT22;64402;44.708;37.644;2023-02-21T06:19:04;5.43;80.46
75786;DHT22;64402;44.708;37.644;2023-02-21T06:21:31;5.31;81.67
75786;DHT22;64402;44.708;37.644;2023-02-21T06:23:58;5.21;81.01
75786;DHT22;64402;44.708;37.644;2023-02-21T06:26:25;5.18;85.06
75786;DHT22;64402;44.708;37.644;2023-02-21T06:28:52;5.02;90.53
75786;DHT22;64402;44.708;37.644;2023-02-21T06:31:19;5.00;93.79
75786;DHT22;64402;44.708;37.644;2023-02-21T06:33:47;5.01;94.23
75786;DHT22;64402;44.708;37.644;2023-02-21T06:36:16;5.04;92.32
75786;DHT22;64402;44.708;37.644;2023-02-21T06:38:45;5.09;96.42
75786;DHT22;64402;44.708;37.644;2023-02-21T06:41:14;5.00;96.07
75786;DHT22;64402;44.708;37.644;2023-02-21T06:43:41;4.94;96.78
75786;DHT22;64402;44.708;37.644;2023-02-21T06:46:08;4.90;97.48
75786;DHT22;64402;44.708;37.644;2023-02-21T06:48:34;4.90;98.56
75786;DHT22;64402;44.708;37.644;2023-02-21T06:51:00;4.97;99.44
75786;DHT22;64402;44.708;37.644;2023-02-21T06:53:27;5.01;100.14
75786;DHT22;64402;44.708;37.644;2023-02-21T06:55:53;5.04;99.88
75786;DHT22;64402;44.708;37.644;2023-02-21T06:58:20;5.12;100.19
75786;DHT22;64402;44.708;37.644;2023-02-21T07:00:46;5.11;99.38
75786;DHT22;64402;44.708;37.644;2023-02-21T07:03:12;5.19;99.58
75786;DHT22;64402;44.708;37.644;2023-02-21T07:05:39;5.24;99.55
75786;DHT22;64402;44.708;37.644;2023-02-21T07:08:05;5.28;100.37
75786;DHT22;64402;44.708;37.644;2023-02-21T07:10:31;5.31;99.86
75786;DHT22;64402;44.708;37.644;2023-02-21T07:12:58;5.37;101.30
75786;DHT22;64402;44.708;37.644;2023-02-21T07:15:24;5.41;101.51
75786;DHT22;64402;44.708;37.644;2023-02-21T07:17:51;5.48;101.57
75786;DHT22;64402;44.708;37.644;2023-02-21T07:20:17;5.55;101.69
75786;DHT22;64402;44.708;37.644;2023-02-21T07:22:43;5.52;102.02
75786;DHT22;64402;44.708;37.644;2023-02-21T07:25:19;5.56;104.50
75786;DHT22;64402;44.708;37.644;2023-02-21T07:27:46;5.60;105.11
75786;DHT22;64402;44.708;37.644;2023-02-21T07:30:13;5.61;105.21
75786;DHT22;64402;44.708;37.644;2023-02-21T07:32:40;5.65;105.37
75786;DHT22;64402;44.708;37.644;2023-02-21T07:35:07;5.68;105.46
75786;DHT22;64402;44.708;37.644;2023-02-21T07:37:34;5.63;105.43
75786;DHT22;64402;44.708;37.644;2023-02-21T07:40:00;5.69;105.58
75786;DHT22;64402;44.708;37.644;2023-02-21T07:42:27;5.71;105.60
75786;DHT22;64402;44.708;37.644;2023-02-21T07:44:57;5.75;105.60
75786;DHT22;64402;44.708;37.644;2023-02-21T07:47:25;5.78;105.62
75786;DHT22;64402;44.708;37.644;2023-02-21T07:49:51;5.85;105.69
75786;DHT22;64402;44.708;37.644;2023-02-21T07:52:20;5.89;105.65
75786;DHT22;64402;44.708;37.644;2023-02-21T07:54:47;5.90;105.64
75786;DHT22;64402;44.708;37.644;2023-02-21T07:57:15;5.93;105.63
75786;DHT22;64402;44.708;37.644;2023-02-21T07:59:42;5.97;105.62
75786;DHT22;64402;44.708;37.644;2023-02-21T08:02:10;6.00;105.60
75786;DHT22;64402;44.708;37.644;2023-02-21T08:04:37;6.06;105.56
75786;DHT22;64402;44.708;37.644;2023-02-21T08:07:04;6.09;105.56
75786;DHT22;64402;44.708;37.644;2023-02-21T08:09:30;6.14;105.54
75786;DHT22;64402;44.708;37.644;2023-02-21T08:11:57;6.14;105.45
75786;DHT22;64402;44.708;37.644;2023-02-21T08:14:23;6.20;105.48
75786;DHT22;64402;44.708;37.644;2023-02-21T08:16:50;6.20;105.39
75786;DHT22;64402;44.708;37.644;2023-02-21T08:19:16;6.24;105.39
75786;DHT22;64402;44.708;37.644;2023-02-21T08:21:44;6.28;105.33
75786;DHT22;64402;44.708;37.644;2023-02-21T08:24:11;6.33;105.31
75786;DHT22;64402;44.708;37.644;2023-02-21T08:26:38;6.36;105.23
75786;DHT22;64402;44.708;37.644;2023-02-21T08:29:07;6.42;105.19
75786;DHT22;64402;44.708;37.644;2023-02-21T08:31:35;6.42;105.15
75786;DHT22;64402;44.708;37.644;2023-02-21T08:34:02;6.42;105.05
75786;DHT22;64402;44.708;37.644;2023-02-21T08:36:33;6.41;105.00
75786;DHT22;64402;44.708;37.644;2023-02-21T08:39:00;6.46;105.08
75786;DHT22;64402;44.708;37.644;2023-02-21T08:41:39;6.49;105.13
75786;DHT22;64402;44.708;37.644;2023-02-21T08:44:08;6.50;105.22
75786;DHT22;64402;44.708;37.644;2023-02-21T08:46:35;6.50;105.22
75786;DHT22;64402;44.708;37.644;2023-02-21T08:49:02;6.46;105.27
75786;DHT22;64402;44.708;37.644;2023-02-21T08:54:37;6.50;105.38
75786;DHT22;64402;44.708;37.644;2023-02-21T08:57:03;6.51;105.43
75786;DHT22;64402;44.708;37.644;2023-02-21T08:59:30;6.53;105.46
75786;DHT22;64402;44.708;37.644;2023-02-21T09:01:59;6.53;105.44
75786;DHT22;64402;44.708;37.644;2023-02-21T09:04:26;6.51;105.46
75786;DHT22;64402;44.708;37.644;2023-02-21T09:06:54;6.56;105.53
75786;DHT22;64402;44.708;37.644;2023-02-21T09:09:21;6.55;105.50
75786;DHT22;64402;44.708;37.644;2023-02-21T09:11:48;6.53;105.53
75786;DHT22;64402;44.708;37.644;2023-02-21T09:14:15;6.58;105.69
75786;DHT22;64402;44.708;37.644;2023-02-21T09:16:42;6.58;105.68
75786;DHT22;64402;44.708;37.644;2023-02-21T09:19:09;6.58;105.72
75786;DHT22;64402;44.708;37.644;2023-02-21T09:21:43;6.59;105.77
75786;DHT22;64402;44.708;37.644;2023-02-21T09:24:10;6.66;105.85
75786;DHT22;64402;44.708;37.644;2023-02-21T09:26:37;6.68;105.85
75786;DHT22;64402;44.708;37.644;2023-02-21T09:29:03;6.68;105.87
75786;DHT22;64402;44.708;37.644;2023-02-21T09:31:30;6.71;105.89
75786;DHT22;64402;44.708;37.644;2023-02-21T09:33:57;6.73;105.92
75786;DHT22;64402;44.708;37.644;2023-02-21T09:36:23;6.73;105.90
75786;DHT22;64402;44.708;37.644;2023-02-21T09:38:50;6.72;105.87
75786;DHT22;64402;44.708;37.644;2023-02-21T09:41:17;6.72;105.88
75786;DHT22;64402;44.708;37.644;2023-02-21T09:43:47;6.78;105.92
75786;DHT22;64402;44.708;37.644;2023-02-21T09:46:20;6.79;105.93
75786;DHT22;64402;44.708;37.644;2023-02-21T09:51:30;6.83;105.93
75786;DHT22;64402;44.708;37.644;2023-02-21T09:54:00;6.83;105.92
75786;DHT22;64402;44.708;37.644;2023-02-21T09:56:37;6.86;105.89
75786;DHT22;64402;44.708;37.644;2023-02-21T09:59:09;6.89;105.91
75786;DHT22;64402;44.708;37.644;2023-02-21T10:07:26;6.86;105.83
75786;DHT22;64402;44.708;37.644;2023-02-21T10:10:06;6.87;105.83
75786;DHT22;64402;44.708;37.644;2023-02-21T10:15:22;6.90;105.82
75786;DHT22;64402;44.708;37.644;2023-02-21T10:23:01;6.93;105.88
75786;DHT22;64402;44.708;37.644;2023-02-21T10:25:32;6.91;105.82
75786;DHT22;64402;44.708;37.644;2023-02-21T10:28:01;6.90;105.82
75786;DHT22;64402;44.708;37.644;2023-02-21T10:30:32;6.97;105.86
75786;DHT22;64402;44.708;37.644;2023-02-21T10:33:00;6.98;105.80
75786;DHT22;64402;44.708;37.644;2023-02-21T10:35:37;6.99;105.79
75786;DHT22;64402;44.708;37.644;2023-02-21T10:38:13;7.00;105.76
75786;DHT22;64402;44.708;37.644;2023-02-21T10:40:41;7.03;105.74
75786;DHT22;64402;44.708;37.644;2023-02-21T10:45:47;7.04;105.69
75786;DHT22;64402;44.708;37.644;2023-02-21T10:48:19;7.11;105.67
75786;DHT22;64402;44.708;37.644;2023-02-21T10:51:48;7.12;105.62
75786;DHT22;64402;44.708;37.644;2023-02-21T10:54:16;7.08;105.57
75786;DHT22;64402;44.708;37.644;2023-02-21T10:56:42;7.11;105.60
75786;DHT22;64402;44.708;37.644;2023-02-21T10:59:20;7.11;105.60
75786;DHT22;64402;44.708;37.644;2023-02-21T11:01:48;7.13;105.59
75786;DHT22;64402;44.708;37.644;2023-02-21T11:07:05;7.13;105.60
75786;DHT22;64402;44.708;37.644;2023-02-21T11:09:35;7.11;105.56
75786;DHT22;64402;44.708;37.644;2023-02-21T11:12:25;7.11;105.56
75786;DHT22;64402;44.708;37.644;2023-02-21T11:17:20;7.13;105.61
75786;DHT22;64402;44.708;37.644;2023-02-21T11:22:40;7.18;105.65
75786;DHT22;64402;44.708;37.644;2023-02-21T11:27:58;7.23;105.65
75786;DHT22;64402;44.708;37.644;2023-02-21T11:30:26;7.27;105.68
75786;DHT22;64402;44.708;37.644;2023-02-21T11:32:57;7.27;105.66
75786;DHT22;64402;44.708;37.644;2023-02-21T11:35:30;7.27;105.64
75786;DHT22;64402;44.708;37.644;2023-02-21T11:38:06;7.32;105.69
75786;DHT22;64402;44.708;37.644;2023-02-21T11:40:44;7.35;105.67
75786;DHT22;64402;44.708;37.644;2023-02-21T11:43:20;7.34;105.66
75786;DHT22;64402;44.708;37.644;2023-02-21T11:51:46;7.33;105.60
75786;DHT22;64402;44.708;37.644;2023-02-21T11:54:14;7.38;105.67
75786;DHT22;64402;44.708;37.644;2023-02-21T11:57:01;7.40;105.61
75786;DHT22;64402;44.708;37.644;2023-02-21T12:00:02;7.35;105.56
75786;DHT22;64402;44.708;37.644;2023-02-21T12:02:46;7.44;105.59
75786;DHT22;64402;44.708;37.644;2023-02-21T12:05:29;7.52;105.62
75786;DHT22;64402;44.708;37.644;2023-02-21T12:14:14;7.46;105.47
75786;DHT22;64402;44.708;37.644;2023-02-21T12:16:53;7.49;105.47
75786;DHT22;64402;44.708;37.644;2023-02-21T12:25:15;7.63;105.47
75786;DHT22;64402;44.708;37.644;2023-02-21T12:28:00;7.65;105.48
75786;DHT22;64402;44.708;37.644;2023-02-21T12:31:01;7.63;105.40
75786;DHT22;64402;44.708;37.644;2023-02-21T12:41:57;7.56;105.26
75786;DHT22;64402;44.708;37.644;2023-02-21T12:44:59;7.54;105.22
75786;DHT22;64402;44.708;37.644;2023-02-21T12:47:35;7.54;105.20
75786;DHT22;64402;44.708;37.644;2023-02-21T12:50:13;7.52;105.15
75786;DHT22;64402;44.708;37.644;2023-02-21T12:52:59;7.58;105.22
75786;DHT22;64402;44.708;37.644;2023-02-21T12:55:36;7.55;105.09
75786;DHT22;64402;44.708;37.644;2023-02-21T13:00:56;7.57;105.05
75786;DHT22;64402;44.708;37.644;2023-02-21T13:03:35;7.68;105.14
75786;DHT22;64402;44.708;37.644;2023-02-21T13:06:32;7.76;105.13
75786;DHT22;64402;44.708;37.644;2023-02-21T13:11:48;7.85;105.00
75786;DHT22;64402;44.708;37.644;2023-02-21T13:14:25;7.89;105.00
75786;DHT22;64402;44.708;37.644;2023-02-21T13:16:53;7.89;104.88
75786;DHT22;64402;44.708;37.644;2023-02-21T13:19:20;7.88;104.79
75786;DHT22;64402;44.708;37.644;2023-02-21T13:25:35;7.88;104.62
75786;DHT22;64402;44.708;37.644;2023-02-21T13:27:56;7.85;104.59
75786;DHT22;64402;44.708;37.644;2023-02-21T13:32:59;7.84;104.47
75786;DHT22;64402;44.708;37.644;2023-02-21T13:35:36;7.88;104.52
75786;DHT22;64402;44.708;37.644;2023-02-21T13:38:08;7.87;104.41
75786;DHT22;64402;44.708;37.644;2023-02-21T13:43:23;7.88;104.36
75786;DHT22;64402;44.708;37.644;2023-02-21T13:45:51;7.82;102.75
75786;DHT22;64402;44.708;37.644;2023-02-21T13:48:28;7.81;102.72
75786;DHT22;64402;44.708;37.644;2023-02-21T13:50:59;7.83;102.73
75786;DHT22;64402;44.708;37.644;2023-02-21T13:53:29;7.79;102.69
75786;DHT22;64402;44.708;37.644;2023-02-21T13:58:45;7.77;102.57
75786;DHT22;64402;44.708;37.644;2023-02-21T14:01:14;7.84;102.69
75786;DHT22;64402;44.708;37.644;2023-02-21T14:03:41;7.86;102.70
75786;DHT22;64402;44.708;37.644;2023-02-21T14:08:43;7.86;102.60
75786;DHT22;64402;44.708;37.644;2023-02-21T14:11:18;7.88;102.59
75786;DHT22;64402;44.708;37.644;2023-02-21T14:23:54;7.92;102.55
75786;DHT22;64402;44.708;37.644;2023-02-21T14:37:23;7.88;102.36
75786;DHT22;64402;44.708;37.644;2023-02-21T14:48:06;7.91;102.43
75786;DHT22;64402;44.708;37.644;2023-02-21T15:12:45;7.98;102.37
75786;DHT22;64402;44.708;37.644;2023-02-21T15:20:24;7.99;102.36
75786;DHT22;64402;44.708;37.644;2023-02-21T15:25:36;8.06;102.51
75786;DHT22;64402;44.708;37.644;2023-02-21T15:28:06;8.12;102.63
75786;DHT22;64402;44.708;37.644;2023-02-21T15:30:40;8.19;102.68
75786;DHT22;64402;44.708;37.644;2023-02-21T15:33:16;8.26;104.24
75786;DHT22;64402;44.708;37.644;2023-02-21T15:36:04;8.31;104.28
75786;DHT22;64402;44.708;37.644;2023-02-21T15:38:35;8.38;102.74
75786;DHT22;64402;44.708;37.644;2023-02-21T15:41:22;8.43;102.78
75786;DHT22;64402;44.708;37.644;2023-02-21T15:46:57;8.49;102.31
75786;DHT22;64402;44.708;37.644;2023-02-21T15:49:30;8.48;101.41
75786;DHT22;64402;44.708;37.644;2023-02-21T15:51:59;8.48;99.73
75786;DHT22;64402;44.708;37.644;2023-02-21T15:54:28;8.58;100.13
75786;DHT22;64402;44.708;37.644;2023-02-21T15:59:28;8.64;97.42
75786;DHT22;64402;44.708;37.644;2023-02-21T16:04:40;8.62;94.56
75786;DHT22;64402;44.708;37.644;2023-02-21T16:07:19;8.59;93.32
75786;DHT22;64402;44.708;37.644;2023-02-21T16:09:57;8.65;93.20
75786;DHT22;64402;44.708;37.644;2023-02-21T16:12:37;8.70;92.57
75786;DHT22;64402;44.708;37.644;2023-02-21T16:15:13;8.74;92.87
75786;DHT22;64402;44.708;37.644;2023-02-21T16:17:50;8.75;92.13
75786;DHT22;64402;44.708;37.644;2023-02-21T16:20:21;8.72;90.57
75786;DHT22;64402;44.708;37.644;2023-02-21T16:23:31;8.79;91.47
75786;DHT22;64402;44.708;37.644;2023-02-21T16:28:34;8.80;91.96
75786;DHT22;64402;44.708;37.644;2023-02-21T16:31:04;8.80;92.11
75786;DHT22;64402;44.708;37.644;2023-02-21T16:33:32;8.78;90.84
75786;DHT22;64402;44.708;37.644;2023-02-21T16:36:00;8.77;90.53
75786;DHT22;64402;44.708;37.644;2023-02-21T16:38:29;8.75;90.82
75786;DHT22;64402;44.708;37.644;2023-02-21T16:40:56;8.71;90.31
75786;DHT22;64402;44.708;37.644;2023-02-21T16:43:27;8.66;90.37
75786;DHT22;64402;44.708;37.644;2023-02-21T16:45:55;8.65;91.42
75786;DHT22;64402;44.708;37.644;2023-02-21T16:48:25;8.66;91.33
75786;DHT22;64402;44.708;37.644;2023-02-21T16:50:54;8.68;91.72
75786;DHT22;64402;44.708;37.644;2023-02-21T16:53:21;8.71;91.53
75786;DHT22;64402;44.708;37.644;2023-02-21T16:55:48;8.71;91.10
75786;DHT22;64402;44.708;37.644;2023-02-21T16:58:27;8.73;90.37
75786;DHT22;64402;44.708;37.644;2023-02-21T17:00:58;8.75;90.94
75786;DHT22;64402;44.708;37.644;2023-02-21T17:03:26;8.74;90.73
75786;DHT22;64402;44.708;37.644;2023-02-21T17:05:54;8.76;90.09
75786;DHT22;64402;44.708;37.644;2023-02-21T17:08:21;8.75;90.57
75786;DHT22;64402;44.708;37.644;2023-02-21T17:10:47;8.76;90.29
75786;DHT22;64402;44.708;37.644;2023-02-21T17:13:13;8.77;90.34
75786;DHT22;64402;44.708;37.644;2023-02-21T17:15:39;8.76;90.38
75786;DHT22;64402;44.708;37.644;2023-02-21T17:18:05;8.79;90.27
75786;DHT22;64402;44.708;37.644;2023-02-21T17:20:31;8.80;90.21
75786;DHT22;64402;44.708;37.644;2023-02-21T17:22:58;8.81;89.89
75786;DHT22;64402;44.708;37.644;2023-02-21T17:25:24;8.79;90.09
75786;DHT22;64402;44.708;37.644;2023-02-21T17:27:51;8.80;89.73
75786;DHT22;64402;44.708;37.644;2023-02-21T17:30:19;8.81;89.50
75786;DHT22;64402;44.708;37.644;2023-02-21T17:32:46;8.82;89.83
75786;DHT22;64402;44.708;37.644;2023-02-21T17:35:13;8.80;89.68
75786;DHT22;64402;44.708;37.644;2023-02-21T17:37:41;8.79;89.66
75786;DHT22;64402;44.708;37.644;2023-02-21T17:40:09;8.75;89.86
75786;DHT22;64402;44.708;37.644;2023-02-21T17:42:36;8.76;90.10
75786;DHT22;64402;44.708;37.644;2023-02-21T17:45:02;8.75;90.12
75786;DHT22;64402;44.708;37.644;2023-02-21T17:47:28;8.78;90.09
75786;DHT22;64402;44.708;37.644;2023-02-21T17:49:54;8.79;89.88
75786;DHT22;64402;44.708;37.644;2023-02-21T17:52:23;8.79;89.77
75786;DHT22;64402;44.708;37.644;2023-02-21T17:54:49;8.82;89.44
75786;DHT22;64402;44.708;37.644;2023-02-21T17:57:15;8.82;89.32
75786;DHT22;64402;44.708;37.644;2023-02-21T17:59:42;8.85;89.28
75786;DHT22;64402;44.708;37.644;2023-02-21T18:02:10;8.88;89.17
75786;DHT22;64402;44.708;37.644;2023-02-21T18:04:38;8.86;88.37
75786;DHT22;64402;44.708;37.644;2023-02-21T18:07:04;8.91;88.67
75786;DHT22;64402;44.708;37.644;2023-02-21T18:09:31;8.91;88.37
75786;DHT22;64402;44.708;37.644;2023-02-21T18:11:58;8.91;88.22
75786;DHT22;64402;44.708;37.644;2023-02-21T18:14:26;8.95;88.53
75786;DHT22;64402;44.708;37.644;2023-02-21T18:16:55;8.94;88.12
75786;DHT22;64402;44.708;37.644;2023-02-21T18:19:23;8.93;87.86
75786;DHT22;64402;44.708;37.644;2023-02-21T18:21:49;8.95;87.82
75786;DHT22;64402;44.708;37.644;2023-02-21T18:24:15;8.94;87.80
75786;DHT22;64402;44.708;37.644;2023-02-21T18:26:44;8.98;87.80
75786;DHT22;64402;44.708;37.644;2023-02-21T18:29:10;8.97;87.65
75786;DHT22;64402;44.708;37.644;2023-02-21T18:31:36;9.03;87.71
75786;DHT22;64402;44.708;37.644;2023-02-21T18:34:03;9.03;86.99
75786;DHT22;64402;44.708;37.644;2023-02-21T18:36:30;9.06;87.62
75786;DHT22;64402;44.708;37.644;2023-02-21T18:38:56;9.08;87.52
75786;DHT22;64402;44.708;37.644;2023-02-21T18:41:22;8.81;94.94
75786;DHT22;64402;44.708;37.644;2023-02-21T18:43:49;8.67;94.66
75786;DHT22;64402;44.708;37.644;2023-02-21T18:46:19;8.65;92.81
75786;DHT22;64402;44.708;37.644;2023-02-21T18:48:47;8.68;92.15
75786;DHT22;64402;44.708;37.644;2023-02-21T18:51:15;8.73;89.88
75786;DHT22;64402;44.708;37.644;2023-02-21T18:53:45;8.71;95.01
75786;DHT22;64402;44.708;37.644;2023-02-21T18:56:14;8.60;94.19
75786;DHT22;64402;44.708;37.644;2023-02-21T18:58:40;8.51;95.43